sensor_id;sensor_type;location;lat;lon;timestamp;pressure;altitude;pressure_sealevel;temperature;humidity
49585;BME280;35491;49.142;9.210;2024-02-23T00:00:48;97850.75;;;9.91;58.69
49585;BME280;35491;49.142;9.210;2024-02-23T00:02:49;97849.84;;;10.06;58.07
49585;BME280;35491;49.142;9.210;2024-02-23T00:04:49;97854.88;;;9.94;58.61
49585;BME280;35491;49.142;9.210;2024-02-23T00:06:49;97862.53;;;9.75;58.84
49585;BME280;35491;49.142;9.210;2024-02-23T00:08:51;97860.84;;;9.67;58.72
49585;BME280;35491;49.142;9.210;2024-02-23T00:10:53;97865.47;;;9.59;59.09
49585;BME280;35491;49.142;9.210;2024-02-23T00:12:54;97873.69;;;9.86;58.49
49585;BME280;35491;49.142;9.210;2024-02-23T00:14:54;97868.66;;;9.97;58.20
49585;BME280;35491;49.142;9.210;2024-02-23T00:16:54;97884.38;;;9.64;58.79
49585;BME280;35491;49.142;9.210;2024-02-23T00:18:56;97870.63;;;9.60;58.60
49585;BME280;35491;49.142;9.210;2024-02-23T00:20:57;97871.59;;;9.52;58.78
49585;BME280;35491;49.142;9.210;2024-02-23T00:22:57;97880.03;;;9.56;58.92
49585;BME280;35491;49.142;9.210;2024-02-23T00:24:57;97864.78;;;9.50;58.93
49585;BME280;35491;49.142;9.210;2024-02-23T00:26:58;97884.59;;;9.62;58.54
49585;BME280;35491;49.142;9.210;2024-02-23T00:28:59;97875.78;;;9.40;58.79
49585;BME280;35491;49.142;9.210;2024-02-23T00:30:59;97884.00;;;9.45;58.81
49585;BME280;35491;49.142;9.210;2024-02-23T00:32:59;97877.88;;;9.45;58.70
49585;BME280;35491;49.142;9.210;2024-02-23T00:35:00;97870.88;;;9.44;58.40
49585;BME280;35491;49.142;9.210;2024-02-23T00:37:00;97870.69;;;9.24;58.26
49585;BME280;35491;49.142;9.210;2024-02-23T00:39:01;97896.03;;;9.34;57.81
49585;BME280;35491;49.142;9.210;2024-02-23T00:41:02;97895.59;;;9.52;57.40
49585;BME280;35491;49.142;9.210;2024-02-23T00:43:02;97903.59;;;9.52;57.21
49585;BME280;35491;49.142;9.210;2024-02-23T00:45:04;97913.69;;;9.57;56.99
49585;BME280;35491;49.142;9.210;2024-02-23T00:47:04;97897.75;;;9.42;56.88
49585;BME280;35491;49.142;9.210;2024-02-23T00:49:05;97905.34;;;9.45;56.77
49585;BME280;35491;49.142;9.210;2024-02-23T00:51:06;97906.75;;;9.41;56.66
49585;BME280;35491;49.142;9.210;2024-02-23T00:53:07;97899.41;;;9.43;56.25
49585;BME280;35491;49.142;9.210;2024-02-23T00:55:08;97900.72;;;9.76;55.60
49585;BME280;35491;49.142;9.210;2024-02-23T00:57:08;97899.38;;;9.65;55.62
49585;BME280;35491;49.142;9.210;2024-02-23T00:59:09;97916.53;;;9.34;55.94
49585;BME280;35491;49.142;9.210;2024-02-23T01:01:09;97912.66;;;9.36;55.74
49585;BME280;35491;49.142;9.210;2024-02-23T01:03:09;97909.28;;;9.28;55.66
49585;BME280;35491;49.142;9.210;2024-02-23T01:05:10;97921.34;;;9.45;55.33
49585;BME280;35491;49.142;9.210;2024-02-23T01:07:10;97921.59;;;9.29;55.71
49585;BME280;35491;49.142;9.210;2024-02-23T01:09:11;97930.50;;;9.36;55.41
49585;BME280;35491;49.142;9.210;2024-02-23T01:11:11;97939.47;;;9.13;55.74
49585;BME280;35491;49.142;9.210;2024-02-23T01:13:11;97944.41;;;9.16;55.80
49585;BME280;35491;49.142;9.210;2024-02-23T01:15:12;97940.09;;;9.30;55.51
49585;BME280;35491;49.142;9.210;2024-02-23T01:17:12;97926.13;;;9.28;55.62
49585;BME280;35491;49.142;9.210;2024-02-23T01:19:13;97925.16;;;9.14;55.88
49585;BME280;35491;49.142;9.210;2024-02-23T01:21:13;97932.16;;;9.00;56.04
49585;BME280;35491;49.142;9.210;2024-02-23T01:23:14;97927.50;;;9.24;55.78
49585;BME280;35491;49.142;9.210;2024-02-23T01:25:14;97922.31;;;9.38;55.58
49585;BME280;35491;49.142;9.210;2024-02-23T01:27:15;97917.41;;;9.19;55.97
49585;BME280;35491;49.142;9.210;2024-02-23T01:29:16;97919.22;;;9.34;55.72
49585;BME280;35491;49.142;9.210;2024-02-23T01:31:17;97923.41;;;9.43;55.47
49585;BME280;35491;49.142;9.210;2024-02-23T01:33:17;97914.03;;;9.11;55.88
49585;BME280;35491;49.142;9.210;2024-02-23T01:35:17;97930.31;;;9.01;55.87
49585;BME280;35491;49.142;9.210;2024-02-23T01:37:18;97935.34;;;9.11;55.66
49585;BME280;35491;49.142;9.210;2024-02-23T01:39:18;97954.19;;;9.09;55.38
49585;BME280;35491;49.142;9.210;2024-02-23T01:41:18;97931.06;;;8.95;55.22
49585;BME280;35491;49.142;9.210;2024-02-23T01:43:19;97943.16;;;9.12;54.79
49585;BME280;35491;49.142;9.210;2024-02-23T01:45:19;97948.75;;;9.02;55.12
49585;BME280;35491;49.142;9.210;2024-02-23T01:47:20;97949.06;;;8.93;55.55
49585;BME280;35491;49.142;9.210;2024-02-23T01:49:20;97956.19;;;9.07;55.18
49585;BME280;35491;49.142;9.210;2024-02-23T01:51:22;97961.75;;;8.90;55.23
49585;BME280;35491;49.142;9.210;2024-02-23T01:53:23;97961.72;;;9.20;54.55
49585;BME280;35491;49.142;9.210;2024-02-23T01:55:25;97963.56;;;9.20;54.48
49585;BME280;35491;49.142;9.210;2024-02-23T01:57:26;97965.66;;;9.25;54.39
49585;BME280;35491;49.142;9.210;2024-02-23T01:59:27;97965.75;;;9.16;54.45
49585;BME280;35491;49.142;9.210;2024-02-23T02:01:30;97970.75;;;8.89;54.92
49585;BME280;35491;49.142;9.210;2024-02-23T02:03:30;97970.56;;;9.06;54.79
49585;BME280;35491;49.142;9.210;2024-02-23T02:05:32;97975.22;;;9.19;54.31
49585;BME280;35491;49.142;9.210;2024-02-23T02:07:32;97968.25;;;9.18;54.39
49585;BME280;35491;49.142;9.210;2024-02-23T02:09:33;97979.75;;;8.88;54.65
49585;BME280;35491;49.142;9.210;2024-02-23T02:11:33;97969.72;;;9.20;54.10
49585;BME280;35491;49.142;9.210;2024-02-23T02:13:33;97970.69;;;8.83;54.74
49585;BME280;35491;49.142;9.210;2024-02-23T02:15:34;97980.28;;;8.99;54.35
49585;BME280;35491;49.142;9.210;2024-02-23T02:17:35;97978.94;;;9.03;54.09
49585;BME280;35491;49.142;9.210;2024-02-23T02:19:35;97985.81;;;8.82;54.41
49585;BME280;35491;49.142;9.210;2024-02-23T02:21:37;97988.31;;;8.69;54.23
49585;BME280;35491;49.142;9.210;2024-02-23T02:23:38;97988.84;;;8.79;53.77
49585;BME280;35491;49.142;9.210;2024-02-23T02:25:39;97982.41;;;8.88;53.66
49585;BME280;35491;49.142;9.210;2024-02-23T02:27:39;97988.13;;;9.15;53.17
49585;BME280;35491;49.142;9.210;2024-02-23T02:29:40;98001.44;;;8.85;53.55
49585;BME280;35491;49.142;9.210;2024-02-23T02:31:40;98004.03;;;8.94;53.27
49585;BME280;35491;49.142;9.210;2024-02-23T02:33:41;98005.84;;;9.08;53.17
49585;BME280;35491;49.142;9.210;2024-02-23T02:35:41;98006.88;;;8.92;53.55
49585;BME280;35491;49.142;9.210;2024-02-23T02:37:42;97999.03;;;8.90;53.64
49585;BME280;35491;49.142;9.210;2024-02-23T02:39:42;98008.34;;;9.10;53.32
49585;BME280;35491;49.142;9.210;2024-02-23T02:41:43;97999.50;;;8.79;53.65
49585;BME280;35491;49.142;9.210;2024-02-23T02:43:44;98007.03;;;9.05;53.15
49585;BME280;35491;49.142;9.210;2024-02-23T02:45:44;98009.06;;;8.88;53.47
49585;BME280;35491;49.142;9.210;2024-02-23T02:47:44;98007.97;;;8.68;53.75
49585;BME280;35491;49.142;9.210;2024-02-23T02:49:45;98006.13;;;8.83;53.31
49585;BME280;35491;49.142;9.210;2024-02-23T02:51:45;98011.81;;;8.95;53.37
49585;BME280;35491;49.142;9.210;2024-02-23T02:53:46;98015.56;;;8.71;53.85
49585;BME280;35491;49.142;9.210;2024-02-23T02:55:46;98012.38;;;9.05;53.01
49585;BME280;35491;49.142;9.210;2024-02-23T02:57:47;98008.78;;;9.13;52.67
49585;BME280;35491;49.142;9.210;2024-02-23T02:59:47;98007.78;;;8.84;53.01
49585;BME280;35491;49.142;9.210;2024-02-23T03:01:50;98006.88;;;8.77;53.12
49585;BME280;35491;49.142;9.210;2024-02-23T03:03:51;98011.56;;;9.05;52.57
49585;BME280;35491;49.142;9.210;2024-02-23T03:05:51;98018.00;;;9.11;52.41
49585;BME280;35491;49.142;9.210;2024-02-23T03:07:51;98021.66;;;8.95;52.81
49585;BME280;35491;49.142;9.210;2024-02-23T03:09:52;98020.47;;;9.12;52.70
49585;BME280;35491;49.142;9.210;2024-02-23T03:11:54;98013.94;;;8.85;52.93
49585;BME280;35491;49.142;9.210;2024-02-23T03:13:55;98031.31;;;8.96;52.99
49585;BME280;35491;49.142;9.210;2024-02-23T03:15:55;98019.16;;;8.93;52.88
49585;BME280;35491;49.142;9.210;2024-02-23T03:17:56;98022.88;;;8.92;52.91
49585;BME280;35491;49.142;9.210;2024-02-23T03:19:56;98021.75;;;9.01;52.71
49585;BME280;35491;49.142;9.210;2024-02-23T03:21:58;98027.00;;;9.25;52.37
49585;BME280;35491;49.142;9.210;2024-02-23T03:23:59;98021.66;;;8.95;52.84
49585;BME280;35491;49.142;9.210;2024-02-23T03:25:59;98011.16;;;8.93;53.07
49585;BME280;35491;49.142;9.210;2024-02-23T03:27:59;98014.38;;;9.03;52.98
49585;BME280;35491;49.142;9.210;2024-02-23T03:30:00;98026.00;;;9.11;52.75
49585;BME280;35491;49.142;9.210;2024-02-23T03:32:01;98014.13;;;8.98;53.03
49585;BME280;35491;49.142;9.210;2024-02-23T03:34:02;97993.44;;;9.15;52.96
49585;BME280;35491;49.142;9.210;2024-02-23T03:36:03;98007.34;;;9.47;52.07
49585;BME280;35491;49.142;9.210;2024-02-23T03:38:04;98008.88;;;9.20;52.64
49585;BME280;35491;49.142;9.210;2024-02-23T03:40:06;98009.72;;;8.90;53.33
49585;BME280;35491;49.142;9.210;2024-02-23T03:42:06;98005.03;;;8.93;53.28
49585;BME280;35491;49.142;9.210;2024-02-23T03:44:07;98008.97;;;8.67;53.23
49585;BME280;35491;49.142;9.210;2024-02-23T03:46:08;98020.38;;;8.90;52.78
49585;BME280;35491;49.142;9.210;2024-02-23T03:48:08;98005.88;;;8.78;53.05
49585;BME280;35491;49.142;9.210;2024-02-23T03:50:09;98009.16;;;8.80;52.62
49585;BME280;35491;49.142;9.210;2024-02-23T03:52:10;98001.81;;;8.97;52.58
49585;BME280;35491;49.142;9.210;2024-02-23T03:54:10;98013.22;;;9.06;52.55
49585;BME280;35491;49.142;9.210;2024-02-23T03:56:11;98008.25;;;9.03;52.72
49585;BME280;35491;49.142;9.210;2024-02-23T03:58:11;98032.88;;;9.05;52.70
49585;BME280;35491;49.142;9.210;2024-02-23T04:00:12;98036.00;;;8.94;52.87
49585;BME280;35491;49.142;9.210;2024-02-23T04:02:13;98031.03;;;8.90;52.76
49585;BME280;35491;49.142;9.210;2024-02-23T04:04:14;98028.66;;;8.81;52.79
49585;BME280;35491;49.142;9.210;2024-02-23T04:06:14;98034.13;;;8.79;52.85
49585;BME280;35491;49.142;9.210;2024-02-23T04:08:15;98029.72;;;8.56;52.64
49585;BME280;35491;49.142;9.210;2024-02-23T04:10:16;98043.78;;;8.80;52.25
49585;BME280;35491;49.142;9.210;2024-02-23T04:12:16;98045.81;;;8.93;51.93
49585;BME280;35491;49.142;9.210;2024-02-23T04:14:17;98047.00;;;8.76;52.33
49585;BME280;35491;49.142;9.210;2024-02-23T04:16:17;98055.00;;;8.76;52.03
49585;BME280;35491;49.142;9.210;2024-02-23T04:18:17;98040.84;;;8.60;51.87
49585;BME280;35491;49.142;9.210;2024-02-23T04:20:18;98030.94;;;8.69;51.61
49585;BME280;35491;49.142;9.210;2024-02-23T04:22:19;98035.09;;;8.86;51.31
49585;BME280;35491;49.142;9.210;2024-02-23T04:24:19;98033.13;;;8.80;51.17
49585;BME280;35491;49.142;9.210;2024-02-23T04:26:20;98038.47;;;8.80;50.73
49585;BME280;35491;49.142;9.210;2024-02-23T04:28:20;98034.16;;;8.64;50.52
49585;BME280;35491;49.142;9.210;2024-02-23T04:30:21;98038.63;;;8.64;50.29
49585;BME280;35491;49.142;9.210;2024-02-23T04:32:21;98036.81;;;8.64;50.31
49585;BME280;35491;49.142;9.210;2024-02-23T04:34:22;98034.88;;;8.73;50.16
49585;BME280;35491;49.142;9.210;2024-02-23T04:36:22;98039.41;;;8.87;50.00
49585;BME280;35491;49.142;9.210;2024-02-23T04:38:23;98044.88;;;8.71;50.22
49585;BME280;35491;49.142;9.210;2024-02-23T04:40:23;98039.47;;;8.79;50.31
49585;BME280;35491;49.142;9.210;2024-02-23T04:42:24;98028.25;;;8.99;49.83
49585;BME280;35491;49.142;9.210;2024-02-23T04:44:24;98027.66;;;8.97;49.88
49585;BME280;35491;49.142;9.210;2024-02-23T04:46:25;98035.53;;;8.75;50.30
49585;BME280;35491;49.142;9.210;2024-02-23T04:48:26;98031.94;;;8.98;50.01
49585;BME280;35491;49.142;9.210;2024-02-23T04:50:26;98045.00;;;8.93;49.98
49585;BME280;35491;49.142;9.210;2024-02-23T04:52:27;98028.56;;;8.89;50.04
49585;BME280;35491;49.142;9.210;2024-02-23T04:54:28;98031.59;;;9.01;50.00
49585;BME280;35491;49.142;9.210;2024-02-23T04:56:28;98032.69;;;8.92;49.96
49585;BME280;35491;49.142;9.210;2024-02-23T04:58:28;98037.56;;;9.18;49.67
49585;BME280;35491;49.142;9.210;2024-02-23T05:00:29;98035.63;;;8.97;50.17
49585;BME280;35491;49.142;9.210;2024-02-23T05:02:33;98039.09;;;8.82;50.25
49585;BME280;35491;49.142;9.210;2024-02-23T05:04:35;98038.00;;;8.92;50.02
49585;BME280;35491;49.142;9.210;2024-02-23T05:06:36;98045.34;;;8.89;50.11
49585;BME280;35491;49.142;9.210;2024-02-23T05:08:37;98047.75;;;8.84;50.18
49585;BME280;35491;49.142;9.210;2024-02-23T05:10:37;98038.56;;;9.02;49.92
49585;BME280;35491;49.142;9.210;2024-02-23T05:12:38;98030.38;;;9.03;49.92
49585;BME280;35491;49.142;9.210;2024-02-23T05:14:40;98026.91;;;9.03;49.81
49585;BME280;35491;49.142;9.210;2024-02-23T05:16:41;98024.88;;;8.90;50.19
49585;BME280;35491;49.142;9.210;2024-02-23T05:18:41;98035.22;;;8.70;50.12
49585;BME280;35491;49.142;9.210;2024-02-23T05:20:42;98031.94;;;8.98;50.01
49585;BME280;35491;49.142;9.210;2024-02-23T05:22:42;98027.25;;;9.00;49.95
49585;BME280;35491;49.142;9.210;2024-02-23T05:24:43;98028.19;;;8.92;50.05
49585;BME280;35491;49.142;9.210;2024-02-23T05:26:44;98032.97;;;8.82;50.29
49585;BME280;35491;49.142;9.210;2024-02-23T05:28:45;98038.00;;;8.92;49.92
49585;BME280;35491;49.142;9.210;2024-02-23T05:30:45;98035.16;;;8.93;49.87
49585;BME280;35491;49.142;9.210;2024-02-23T05:32:45;98038.13;;;8.98;49.84
49585;BME280;35491;49.142;9.210;2024-02-23T05:34:47;98029.75;;;8.71;50.09
49585;BME280;35491;49.142;9.210;2024-02-23T05:36:51;98027.00;;;8.95;49.80
49585;BME280;35491;49.142;9.210;2024-02-23T05:38:51;98036.66;;;9.11;49.52
49585;BME280;35491;49.142;9.210;2024-02-23T05:40:52;98039.56;;;8.86;49.68
49585;BME280;35491;49.142;9.210;2024-02-23T05:42:52;98037.38;;;9.04;49.24
49585;BME280;35491;49.142;9.210;2024-02-23T05:44:54;98033.25;;;9.02;49.52
49585;BME280;35491;49.142;9.210;2024-02-23T05:46:55;98043.91;;;9.02;49.44
49585;BME280;35491;49.142;9.210;2024-02-23T05:48:55;98050.41;;;8.84;49.71
49585;BME280;35491;49.142;9.210;2024-02-23T05:50:57;98052.81;;;8.94;49.73
49585;BME280;35491;49.142;9.210;2024-02-23T05:52:57;98057.50;;;8.77;49.98
49585;BME280;35491;49.142;9.210;2024-02-23T05:54:58;98050.13;;;8.79;49.63
49585;BME280;35491;49.142;9.210;2024-02-23T05:57:00;98052.31;;;8.61;49.55
49585;BME280;35491;49.142;9.210;2024-02-23T05:59:01;98052.97;;;8.78;49.45
49585;BME280;35491;49.142;9.210;2024-02-23T06:01:01;98053.34;;;8.74;49.29
49585;BME280;35491;49.142;9.210;2024-02-23T06:03:02;98049.97;;;8.81;49.29
49585;BME280;35491;49.142;9.210;2024-02-23T06:05:04;98052.72;;;8.87;49.26
49585;BME280;35491;49.142;9.210;2024-02-23T06:07:05;98044.25;;;8.99;49.17
49585;BME280;35491;49.142;9.210;2024-02-23T06:09:06;98046.56;;;9.02;49.12
49585;BME280;35491;49.142;9.210;2024-02-23T06:11:09;98053.91;;;8.85;49.51
49585;BME280;35491;49.142;9.210;2024-02-23T06:13:09;98056.94;;;8.67;49.60
49585;BME280;35491;49.142;9.210;2024-02-23T06:15:10;98052.44;;;8.97;49.20
49585;BME280;35491;49.142;9.210;2024-02-23T06:17:10;98057.31;;;8.94;49.41
49585;BME280;35491;49.142;9.210;2024-02-23T06:19:11;98060.34;;;9.05;49.20
49585;BME280;35491;49.142;9.210;2024-02-23T06:21:15;98060.00;;;9.09;49.10
49585;BME280;35491;49.142;9.210;2024-02-23T06:23:16;98066.94;;;8.80;49.71
49585;BME280;35491;49.142;9.210;2024-02-23T06:25:17;98072.38;;;8.86;49.65
49585;BME280;35491;49.142;9.210;2024-02-23T06:27:17;98070.84;;;8.92;49.75
49585;BME280;35491;49.142;9.210;2024-02-23T06:29:18;98075.97;;;8.94;49.73
49585;BME280;35491;49.142;9.210;2024-02-23T06:31:18;98091.31;;;8.92;49.73
49585;BME280;35491;49.142;9.210;2024-02-23T06:33:18;98084.16;;;8.92;49.59
49585;BME280;35491;49.142;9.210;2024-02-23T06:35:20;98088.84;;;8.90;49.84
49585;BME280;35491;49.142;9.210;2024-02-23T06:37:22;98090.22;;;9.01;49.45
49585;BME280;35491;49.142;9.210;2024-02-23T06:39:22;98091.53;;;9.05;49.46
49585;BME280;35491;49.142;9.210;2024-02-23T06:41:23;98083.31;;;8.92;49.74
49585;BME280;35491;49.142;9.210;2024-02-23T06:43:23;98091.31;;;8.92;49.74
49585;BME280;35491;49.142;9.210;2024-02-23T06:45:24;98100.31;;;8.90;49.89
49585;BME280;35491;49.142;9.210;2024-02-23T06:47:26;98109.94;;;8.77;50.00
49585;BME280;35491;49.142;9.210;2024-02-23T06:49:26;98104.34;;;8.71;49.85
49585;BME280;35491;49.142;9.210;2024-02-23T06:51:26;98104.50;;;8.70;49.96
49585;BME280;35491;49.142;9.210;2024-02-23T06:53:28;98102.56;;;8.64;49.82
49585;BME280;35491;49.142;9.210;2024-02-23T06:55:28;98104.78;;;8.75;49.66
49585;BME280;35491;49.142;9.210;2024-02-23T06:57:29;98104.72;;;8.83;49.38
49585;BME280;35491;49.142;9.210;2024-02-23T06:59:31;98106.84;;;8.88;49.49
49585;BME280;35491;49.142;9.210;2024-02-23T07:01:33;98108.28;;;8.76;49.30
49585;BME280;35491;49.142;9.210;2024-02-23T07:03:35;98105.59;;;8.76;49.41
49585;BME280;35491;49.142;9.210;2024-02-23T07:05:37;98107.69;;;8.65;49.58
49585;BME280;35491;49.142;9.210;2024-02-23T07:07:37;98111.19;;;8.66;49.75
49585;BME280;35491;49.142;9.210;2024-02-23T07:09:40;98101.81;;;8.70;49.68
49585;BME280;35491;49.142;9.210;2024-02-23T07:11:41;98098.16;;;8.71;49.79
49585;BME280;35491;49.142;9.210;2024-02-23T07:13:43;98093.78;;;8.78;49.74
49585;BME280;35491;49.142;9.210;2024-02-23T07:15:44;98098.72;;;8.81;49.54
49585;BME280;35491;49.142;9.210;2024-02-23T07:17:45;98099.53;;;8.67;49.79
49585;BME280;35491;49.142;9.210;2024-02-23T07:19:46;98101.78;;;8.78;49.59
49585;BME280;35491;49.142;9.210;2024-02-23T07:21:48;98102.13;;;8.75;49.64
49585;BME280;35491;49.142;9.210;2024-02-23T07:23:48;98108.03;;;8.85;49.51
49585;BME280;35491;49.142;9.210;2024-02-23T07:25:49;98108.81;;;8.71;50.09
49585;BME280;35491;49.142;9.210;2024-02-23T07:27:50;98113.59;;;8.76;49.89
49585;BME280;35491;49.142;9.210;2024-02-23T07:29:51;98105.53;;;8.84;49.77
49585;BME280;35491;49.142;9.210;2024-02-23T07:31:52;98098.56;;;8.83;49.68
49585;BME280;35491;49.142;9.210;2024-02-23T07:33:53;98108.47;;;8.74;49.87
49585;BME280;35491;49.142;9.210;2024-02-23T07:35:53;98104.38;;;8.86;49.77
49585;BME280;35491;49.142;9.210;2024-02-23T07:37:55;98113.72;;;8.82;49.78
49585;BME280;35491;49.142;9.210;2024-02-23T07:39:55;98107.72;;;8.80;49.86
49585;BME280;35491;49.142;9.210;2024-02-23T07:41:56;98115.06;;;8.63;49.99
49585;BME280;35491;49.142;9.210;2024-02-23T07:43:57;98116.28;;;8.90;49.56
49585;BME280;35491;49.142;9.210;2024-02-23T07:45:57;98111.28;;;9.11;49.42
49585;BME280;35491;49.142;9.210;2024-02-23T07:47:58;98113.38;;;8.85;49.77
49585;BME280;35491;49.142;9.210;2024-02-23T07:49:58;98111.19;;;9.04;49.35
49585;BME280;35491;49.142;9.210;2024-02-23T07:51:59;98117.06;;;8.99;49.37
49585;BME280;35491;49.142;9.210;2024-02-23T07:53:59;98103.66;;;9.08;49.05
49585;BME280;35491;49.142;9.210;2024-02-23T07:56:00;98104.53;;;9.00;49.17
49585;BME280;35491;49.142;9.210;2024-02-23T07:58:02;98106.72;;;8.81;49.34
49585;BME280;35491;49.142;9.210;2024-02-23T08:00:03;98101.03;;;8.84;49.23
49585;BME280;35491;49.142;9.210;2024-02-23T08:02:04;98104.63;;;8.53;49.50
49585;BME280;35491;49.142;9.210;2024-02-23T08:04:06;98102.59;;;8.79;49.31
49585;BME280;35491;49.142;9.210;2024-02-23T08:06:07;98104.38;;;8.86;49.38
49585;BME280;35491;49.142;9.210;2024-02-23T08:08:07;98110.19;;;8.67;49.62
49585;BME280;35491;49.142;9.210;2024-02-23T08:10:08;98107.78;;;8.57;50.08
49585;BME280;35491;49.142;9.210;2024-02-23T08:12:09;98109.34;;;8.66;50.18
49585;BME280;35491;49.142;9.210;2024-02-23T08:14:11;98097.06;;;8.80;49.84
49585;BME280;35491;49.142;9.210;2024-02-23T08:16:12;98112.59;;;8.77;50.26
49585;BME280;35491;49.142;9.210;2024-02-23T08:18:12;98117.00;;;8.69;50.27
49585;BME280;35491;49.142;9.210;2024-02-23T08:20:12;98115.06;;;8.63;50.53
49585;BME280;35491;49.142;9.210;2024-02-23T08:22:13;98112.97;;;8.88;50.10
49585;BME280;35491;49.142;9.210;2024-02-23T08:24:14;98102.72;;;9.00;49.84
49585;BME280;35491;49.142;9.210;2024-02-23T08:26:14;98107.13;;;9.08;49.77
49585;BME280;35491;49.142;9.210;2024-02-23T08:28:15;98103.91;;;9.13;49.76
49585;BME280;35491;49.142;9.210;2024-02-23T08:30:15;98109.88;;;9.00;49.97
49585;BME280;35491;49.142;9.210;2024-02-23T08:32:16;98117.81;;;9.38;49.18
49585;BME280;35491;49.142;9.210;2024-02-23T08:34:18;98115.59;;;9.27;49.41
49585;BME280;35491;49.142;9.210;2024-02-23T08:36:18;98108.03;;;9.45;49.27
49585;BME280;35491;49.142;9.210;2024-02-23T08:38:19;98104.31;;;9.40;49.63
49585;BME280;35491;49.142;9.210;2024-02-23T08:40:19;98100.03;;;9.45;49.65
49585;BME280;35491;49.142;9.210;2024-02-23T08:42:20;98108.97;;;9.52;49.33
49585;BME280;35491;49.142;9.210;2024-02-23T08:44:20;98099.34;;;9.36;49.76
49585;BME280;35491;49.142;9.210;2024-02-23T08:46:21;98103.31;;;9.26;50.02
49585;BME280;35491;49.142;9.210;2024-02-23T08:48:21;98100.63;;;9.26;50.12
49585;BME280;35491;49.142;9.210;2024-02-23T08:50:22;98088.56;;;9.30;50.29
49585;BME280;35491;49.142;9.210;2024-02-23T08:52:23;98081.81;;;9.64;49.60
49585;BME280;35491;49.142;9.210;2024-02-23T08:54:23;98075.34;;;9.36;50.24
49585;BME280;35491;49.142;9.210;2024-02-23T08:56:24;98081.47;;;9.52;50.13
49585;BME280;35491;49.142;9.210;2024-02-23T08:58:24;98079.97;;;9.64;49.79
49585;BME280;35491;49.142;9.210;2024-02-23T09:00:24;98088.19;;;9.63;49.96
49585;BME280;35491;49.142;9.210;2024-02-23T09:02:25;98091.56;;;9.72;49.89
49585;BME280;35491;49.142;9.210;2024-02-23T09:04:26;98089.56;;;9.44;50.50
49585;BME280;35491;49.142;9.210;2024-02-23T09:06:26;98101.13;;;9.66;50.33
49585;BME280;35491;49.142;9.210;2024-02-23T09:08:27;98092.97;;;9.52;50.40
49585;BME280;35491;49.142;9.210;2024-02-23T09:10:27;98097.75;;;9.72;50.10
49585;BME280;35491;49.142;9.210;2024-02-23T09:12:28;98089.31;;;9.54;50.53
49585;BME280;35491;49.142;9.210;2024-02-23T09:14:28;98092.34;;;9.50;50.56
49585;BME280;35491;49.142;9.210;2024-02-23T09:16:29;98092.69;;;9.62;50.06
49585;BME280;35491;49.142;9.210;2024-02-23T09:18:29;98088.31;;;9.40;50.50
49585;BME280;35491;49.142;9.210;2024-02-23T09:20:30;98086.59;;;9.68;50.24
49585;BME280;35491;49.142;9.210;2024-02-23T09:22:31;98086.59;;;9.68;50.10
49585;BME280;35491;49.142;9.210;2024-02-23T09:24:31;98096.91;;;9.57;50.07
49585;BME280;35491;49.142;9.210;2024-02-23T09:26:32;98095.16;;;9.64;50.18
49585;BME280;35491;49.142;9.210;2024-02-23T09:28:32;98094.56;;;9.83;49.66
49585;BME280;35491;49.142;9.210;2024-02-23T09:30:33;98100.97;;;9.67;50.19
49585;BME280;35491;49.142;9.210;2024-02-23T09:32:33;98101.03;;;9.74;50.38
49585;BME280;35491;49.142;9.210;2024-02-23T09:34:34;98095.69;;;9.74;50.04
49585;BME280;35491;49.142;9.210;2024-02-23T09:36:34;98096.25;;;9.70;50.21
49585;BME280;35491;49.142;9.210;2024-02-23T09:38:35;98098.66;;;9.64;50.62
49585;BME280;35491;49.142;9.210;2024-02-23T09:40:36;98096.88;;;9.87;50.15
49585;BME280;35491;49.142;9.210;2024-02-23T09:42:38;98097.34;;;9.75;50.21
49585;BME280;35491;49.142;9.210;2024-02-23T09:44:39;98095.28;;;10.29;49.41
49585;BME280;35491;49.142;9.210;2024-02-23T09:46:43;98092.72;;;10.64;48.38
49585;BME280;35491;49.142;9.210;2024-02-23T09:48:44;98095.41;;;10.92;47.98
49585;BME280;35491;49.142;9.210;2024-02-23T09:50:47;98088.81;;;11.23;47.24
49585;BME280;35491;49.142;9.210;2024-02-23T09:52:48;98088.25;;;11.77;46.35
49585;BME280;35491;49.142;9.210;2024-02-23T09:54:51;98094.16;;;11.65;46.59
49585;BME280;35491;49.142;9.210;2024-02-23T09:56:51;98112.06;;;11.23;46.41
49585;BME280;35491;49.142;9.210;2024-02-23T09:58:52;98100.88;;;10.84;47.05
49585;BME280;35491;49.142;9.210;2024-02-23T10:00:53;98102.94;;;11.11;46.83
49585;BME280;35491;49.142;9.210;2024-02-23T10:02:55;98100.41;;;11.02;47.18
49585;BME280;35491;49.142;9.210;2024-02-23T10:04:56;98096.94;;;11.08;46.84
49585;BME280;35491;49.142;9.210;2024-02-23T10:06:57;98100.88;;;10.84;47.17
49585;BME280;35491;49.142;9.210;2024-02-23T10:08:57;98106.97;;;10.71;47.40
49585;BME280;35491;49.142;9.210;2024-02-23T10:11:00;98095.84;;;10.68;47.28
49585;BME280;35491;49.142;9.210;2024-02-23T10:13:01;98099.91;;;10.64;47.44
49585;BME280;35491;49.142;9.210;2024-02-23T10:15:02;98097.91;;;10.07;48.47
49585;BME280;35491;49.142;9.210;2024-02-23T10:17:06;98107.88;;;9.98;48.49
49585;BME280;35491;49.142;9.210;2024-02-23T10:19:08;98110.25;;;10.30;47.92
49585;BME280;35491;49.142;9.210;2024-02-23T10:21:09;98108.97;;;10.41;47.56
49585;BME280;35491;49.142;9.210;2024-02-23T10:23:09;98114.69;;;10.01;48.49
49585;BME280;35491;49.142;9.210;2024-02-23T10:25:10;98109.84;;;10.11;48.59
49585;BME280;35491;49.142;9.210;2024-02-23T10:27:11;98103.13;;;10.15;48.36
49585;BME280;35491;49.142;9.210;2024-02-23T10:29:12;98119.16;;;10.15;48.12
49585;BME280;35491;49.142;9.210;2024-02-23T10:31:12;98127.00;;;10.02;48.57
49585;BME280;35491;49.142;9.210;2024-02-23T10:33:14;98124.34;;;10.02;48.86
49585;BME280;35491;49.142;9.210;2024-02-23T10:35:14;98129.00;;;9.78;49.29
49585;BME280;35491;49.142;9.210;2024-02-23T10:37:16;98133.88;;;9.90;48.96
49585;BME280;35491;49.142;9.210;2024-02-23T10:39:18;98140.75;;;9.99;48.76
49585;BME280;35491;49.142;9.210;2024-02-23T10:41:21;98133.59;;;10.21;48.31
49585;BME280;35491;49.142;9.210;2024-02-23T10:43:30;98134.16;;;10.17;48.13
49585;BME280;35491;49.142;9.210;2024-02-23T10:45:32;98137.59;;;10.32;48.17
49585;BME280;35491;49.142;9.210;2024-02-23T10:47:34;98132.44;;;10.45;47.72